»·PEaware :: N516DM KMRY-KSAC

N516DM :: KMRY-KSAC

FLIGHT INFORMATION

Flight Status: Arrived
Operator: Privately registered:
United States
More flights under this callsign
Pilot: Thomas H. (5912)
Aircraft: BEECH AIRCRAFT DEBONAIR BONANZA
(BE33)
More flights by this aircraft type
Origin: KMRY Monterey Peninsula
United States
Destination: KSAC Sacramento Executive
United States
More flights between these airports :: More routes between these airports
Route: +SNS V111 MOD SAC
File this flight plan on PilotEdge
Remarks:
Altitude:
(Current/Filed)
6,000ft
Speed:
(Current/Filed)
160kts
Departed: 28-Sep-18 10:36 AM
Arrived: 28-Sep-18 11:36 AM
Distance/Time
Traveled:
117nm/0:59
Distance/Time
To Go:
Arrived

Flight Plot

Page will automatically refresh every two minutes.

Flight plan parsing failed; only flown route is shown


Map Options




Map Legend


Flown Route
Filed Route
Departure Airport
Arrival Airport
Navaid (VOR, NDB)
Fix

Horizontal Profiles

Position Reports

Time Latitude Longitude Heading Altitude Ground
Speed
28-Sep-18 10:16 36.588694 -121.854540 338 166ft 0kts
28-Sep-18 10:17 36.588694 -121.854540 338 166ft 0kts
28-Sep-18 10:18 36.588694 -121.854540 337 166ft 0kts
28-Sep-18 10:19 36.588694 -121.854540 337 166ft 0kts
28-Sep-18 10:20 36.588694 -121.854540 338 166ft 0kts
28-Sep-18 10:21 36.588694 -121.854540 337 166ft 0kts
28-Sep-18 10:22 36.588694 -121.854540 337 166ft 0kts
28-Sep-18 10:23 36.588694 -121.854540 337 166ft 0kts
28-Sep-18 10:24 36.588694 -121.854540 337 166ft 0kts
28-Sep-18 10:25 36.588694 -121.854540 337 166ft 0kts
28-Sep-18 10:26 36.588694 -121.854540 337 166ft 0kts
28-Sep-18 10:27 36.588694 -121.854540 337 166ft 0kts
28-Sep-18 10:28 36.588694 -121.854540 337 166ft 0kts
28-Sep-18 10:29 36.588694 -121.854540 337 166ft 0kts
28-Sep-18 10:31 36.588835 -121.854598 348 166ft 7kts
28-Sep-18 10:32 36.587414 -121.848090 112 183ft 28kts
28-Sep-18 10:33 36.585483 -121.842810 119 217ft 0kts
28-Sep-18 10:34 36.584895 -121.841042 114 229ft 23kts
28-Sep-18 10:35 36.582822 -121.834678 83 232ft 0kts
28-Sep-18 10:36 36.582822 -121.834678 83 232ft 0kts
28-Sep-18 10:37 36.582828 -121.834580 87 231ft 8kts
28-Sep-18 10:38 36.588326 -121.849161 289 650ft 93kts
28-Sep-18 10:39 36.603406 -121.876922 336 1655ft 104kts
28-Sep-18 10:40 36.626171 -121.887281 338 2431ft 110kts
28-Sep-18 10:41 36.655837 -121.900174 343 3307ft 114kts
28-Sep-18 10:42 36.691172 -121.902769 22 4346ft 117kts
28-Sep-18 10:43 36.696965 -121.871444 96 5093ft 120kts
28-Sep-18 10:44 36.694361 -121.830481 96 5947ft 121kts
28-Sep-18 10:45 36.691304 -121.780209 97 5980ft 161kts
28-Sep-18 10:46 36.684484 -121.723908 105 5977ft 161kts
28-Sep-18 10:47 36.675523 -121.670754 105 5974ft 154kts
28-Sep-18 10:48 36.667276 -121.618279 91 5972ft 156kts
28-Sep-18 10:49 36.698874 -121.580632 31 5975ft 168kts
28-Sep-18 10:50 36.740404 -121.552549 28 5976ft 171kts
28-Sep-18 10:51 36.782417 -121.524649 26 5976ft 172kts
28-Sep-18 10:52 36.824701 -121.496703 25 5976ft 171kts
28-Sep-18 10:53 36.866789 -121.468857 25 5976ft 171kts
28-Sep-18 10:54 36.908936 -121.440863 25 5976ft 171kts
28-Sep-18 10:55 36.950944 -121.412921 25 5977ft 171kts
28-Sep-18 10:56 36.993066 -121.384978 26 5974ft 172kts
28-Sep-18 10:57 37.035252 -121.356897 28 5949ft 167kts
28-Sep-18 10:58 37.073639 -121.331369 32 6042ft 153kts
28-Sep-18 10:59 37.111135 -121.306099 32 6033ft 158kts
28-Sep-18 11:00 37.150135 -121.279921 32 6023ft 160kts
28-Sep-18 11:01 37.189311 -121.253658 32 6014ft 160kts
28-Sep-18 11:02 37.228400 -121.227429 32 6005ft 159kts
28-Sep-18 11:03 37.267339 -121.201271 32 5996ft 158kts
28-Sep-18 11:04 37.306218 -121.175120 32 5994ft 158kts
28-Sep-18 11:05 37.344881 -121.149085 32 5994ft 158kts
28-Sep-18 11:06 37.383614 -121.122963 31 5994ft 158kts
28-Sep-18 11:07 37.422238 -121.096901 31 5994ft 158kts
28-Sep-18 11:08 37.460985 -121.069918 24 5970ft 162kts
28-Sep-18 11:09 37.501168 -121.043355 23 5967ft 164kts
28-Sep-18 11:10 37.541312 -121.016337 24 5967ft 164kts
28-Sep-18 11:11 37.581575 -120.989061 24 5967ft 164kts
28-Sep-18 11:12 37.622299 -120.963885 1 5966ft 160kts
28-Sep-18 11:13 37.661784 -120.983722 328 5968ft 154kts
28-Sep-18 11:14 37.699234 -121.009774 327 5970ft 153kts
28-Sep-18 11:15 37.736394 -121.036367 326 5974ft 153kts
28-Sep-18 11:16 37.773441 -121.063043 326 5979ft 153kts
28-Sep-18 11:17 37.810363 -121.089684 326 5985ft 153kts
28-Sep-18 11:18 37.847432 -121.116469 326 5989ft 153kts
28-Sep-18 11:19 37.884528 -121.143328 325 5993ft 155kts
28-Sep-18 11:20 37.922214 -121.170615 325 5994ft 157kts
28-Sep-18 11:21 37.960304 -121.198224 325 5994ft 157kts
28-Sep-18 11:22 37.998383 -121.225858 325 5993ft 158kts
28-Sep-18 11:23 38.036452 -121.253505 325 5990ft 158kts
28-Sep-18 11:24 38.074870 -121.281415 324 5986ft 160kts
28-Sep-18 11:25 38.113397 -121.309537 323 5980ft 162kts
28-Sep-18 11:26 38.154771 -121.335226 331 5697ft 178kts
28-Sep-18 11:27 38.202336 -121.357718 334 4991ft 185kts
28-Sep-18 11:28 38.251065 -121.378465 336 4266ft 182kts
28-Sep-18 11:29 38.296946 -121.397784 336 3864ft 167kts
28-Sep-18 11:30 38.341640 -121.417010 338 3227ft 167kts
28-Sep-18 11:31 38.384115 -121.435427 334 2838ft 159kts
28-Sep-18 11:32 38.426293 -121.456095 338 2213ft 163kts
28-Sep-18 11:33 38.468626 -121.476017 335 1551ft 162kts
28-Sep-18 11:34 38.505886 -121.460549 33 1158ft 124kts
28-Sep-18 11:35 38.532774 -121.446196 323 974ft 105kts
28-Sep-18 11:36 38.536905 -121.472951 225 688ft 73kts
28-Sep-18 11:37 38.519949 -121.488461 211 118ft 71kts
28-Sep-18 11:38 38.508523 -121.498159 235 17ft 15kts
28-Sep-18 11:39 38.508657 -121.498895 309 18ft 4kts
28-Sep-18 11:40 38.507186 -121.501411 353 17ft 13kts
28-Sep-18 11:41 38.510227 -121.500422 351 20ft 0kts

Navigation Log

Ident Type
Flight plan parsing failed, navigation log unavailable